Tervuren markt Meer informatie Tervuren markt


Bezoek onze andere website:

Meteotemplate

Home Weather Station

Saratoga


Lokaal brand risico:
CBI


Regionaal brand risico: Meer informatie



METAR rapporten vliegvelden

   
EBBR - Brussels
Gewijzigd: Apr 17 2021 6:20 am
Helder  
Helder  
   Wind: Noorden 5.6 km/h
Wind: Noorden 5.6 km/h
Temperatuur: 1°C
Voelt als: -1°C
Dauwpunt: -1°C
Vochtigheid: 87%
Barometer: 1026 mb
Zicht: meer dan 10 km
Bewolking: Helder
EBBR 170420Z 35003KT CAVOK 01/M01 Q1026 NOSIG
EBAW - Antwerp
Gewijzigd: Apr 17 2021 6:20 am
Helder  
Helder  
   Wind: Noorden 11.1 km/h
Wind: Noorden 11.1 km/h
Temperatuur: 3°C
Voelt als: 0°C
Dauwpunt: 0°C
Vochtigheid: 81%
Barometer: 1027 mb
Zicht: meer dan 10 km
Bewolking: Helder
EBAW 170420Z 01006KT CAVOK 03/M00 Q1027 NOSIG
EHBK - Maastricht
Gewijzigd: Apr 17 2021 6:25 am
Gedeeltelijk bewolkt  
Gedeeltelijk bewolkt  
   Wind: Noorden 9.3 km/h
Wind: Noorden 9.3 km/h
Temperatuur: 2°C
Voelt als: -1°C
Dauwpunt: 0°C
Vochtigheid: 87%
Barometer: 1025 mb
Bewolking: Gedeeltelijk bewolkt
Zicht: meer dan 10 km
Bewolking: Gedeeltelijk bewolkt
EHBK 170425Z AUTO 01005KT 340V050 9999 NSC 02/M00 Q1025 NOSIG
EDLV - Nijmegen
Gewijzigd: Apr 17 2021 6:20 am
Helder  
Helder  
   Wind: varieert 5.6 km/h
Wind: varieert 5.6 km/h
Temperatuur: 3°C
Voelt als: 2°C
Dauwpunt: 0°C
Vochtigheid: 81%
Barometer: 1026 mb
Zicht: meer dan 10 km
Bewolking: Helder
EDLV 170420Z VRB03KT CAVOK 03/M00 Q1026
EHRD - Rotterdam
Gewijzigd: Apr 17 2021 6:25 am
Helder  
Helder  
   Wind: NNW 3.7 km/h
Wind: NNW 3.7 km/h
Temperatuur: 2°C
Dauwpunt: 1°C
Vochtigheid: 93%
Barometer: 1028 mb
Bewolking: Helder
Zicht: meer dan 10 km
Bewolking: Helder
EHRD 170425Z AUTO 34002KT 9999 NCD 02/01 Q1028 NOSIG
 

Script ontwikkeld door  Saratoga-weather.org Aangepast voor de template door  Weerstation Leuven

U vindt ons ook hier:

Het Weer Aktueel

UK Metoffice

European Weather Network

WeatherCloud

Weather Underground

Benelux Weer Netwerk

AWEKAS

Citizen Weather Observer Program (CWOP)

HAMweather, WeatherForYou, PWS Weather

Apparatuur in gebruik:

Weerstation
Davis VP2

Weerprogramma
Meteobridge

Weercomputer
Meteobridge NANO

Davis VP2

Meteobridge

Meteobridge NANO